Startpagina
METAR-TAF:

METAR-TAF

Vliegvelden :

Zeltweg Luchthaven Circuit

Zeltweg, Oostenrijk

breedte: 47-12N, lengte: 014-45E, hoogte: 677 m

Actueel weer

Dit bericht is 14 minuten geleden gemaakt, om 11:20 UTC
Wind 2 kt uit variabele richting
Temperatuur 15°C
Vochtigheid 77%
Druk 1022 hPa

METAR: LOXZ 201120Z VRB02KT 15KM FEW008ST SCT015ST BKN050SC 15/11 Q1022 NOSIG

Tijdstip: 13:34 (11:34 UTC)

Verwachting

Dit bericht is 3 uur en het 19 minuten geleden gemaakt, om 08:15 UTC
Verwachting geldig van 20 om 09 UTC tot 20 om 18 UTC
Wind 3 kt uit variabele richting
Zicht 10 km of meer
Weinig wolken op 200 ft
Gebroken wolken op 6000 ft
Tijdelijke
van 20 om 09 UTC tot 20 om 17 UTC
Verspreide wolken op 4000 ft, Stapelwolken.
Gebroken wolken op 5000 ft
lichte regenbuien

TAF: LOXZ 200815Z 2009/2018 VRB03KT 9999 FEW002 BKN060 TEMPO 2009/2017 -SHRA SCT040TCU BKN050

Waarnemingen en weersverwachtingen van meer dan 4000 vliegvelden (METAR en TAF).

De beschikbare stations zijn de gele en rode punten op de kaart.

Ga met uw muis naar het station om de naam te zien.

Klik dan om waarnemingen en weersverwachtingen te zien.

kaart wijzigen: klik op de groene knoppen met een zwart kruis om in te zoomen, op de groene knop met een streepje om uit te zoomen of op de groene pijlen voor aangrenzende kaarten.


METAR-TAF: